createdAt,value
2023-05-02T00:00:41.923Z,3.2474916387959865
2023-05-02T00:07:03.927Z,3.471571906354515
2023-05-02T00:13:23.258Z,3.74247491638796
2023-05-02T00:19:42.943Z,3.551839464882943
2023-05-02T00:28:58.029Z,4.210702341137123
2023-05-02T00:35:18.003Z,4.260869565217392
2023-05-02T00:41:37.353Z,2.8963210702341136
2023-05-02T00:47:57.431Z,3.8528428093645486
2023-05-02T00:54:17.526Z,3.8862876254180603
2023-05-02T01:00:37.617Z,3.488294314381271
2023-05-02T01:13:53.233Z,3.963210702341137
2023-05-02T01:20:12.700Z,3.4347826086956523
2023-05-02T01:32:15.926Z,2.648829431438127
2023-05-02T01:38:35.791Z,2.448160535117057
2023-05-02T01:44:55.279Z,3.3411371237458196
2023-05-02T01:51:15.020Z,2.6454849498327757
2023-05-02T02:03:10.846Z,3.568561872909699
2023-05-02T02:09:31.784Z,2.511705685618729
2023-05-02T02:19:17.025Z,0.1806020066889632
2023-05-02T02:25:36.158Z,0.6354515050167224
2023-05-02T02:37:50.461Z,0.28762541806020064
2023-05-02T02:44:10.210Z,0.6020066889632107
2023-05-02T02:50:30.253Z,0.26755852842809363
2023-05-02T02:56:50.345Z,1.2709030100334449
2023-05-02T03:03:10.393Z,0.8862876254180602
2023-05-02T03:09:30.099Z,1.3177257525083612
2023-05-02T03:16:49.621Z,2.177257525083612
2023-05-02T03:23:08.946Z,2.274247491638796
2023-05-02T03:29:28.024Z,1.979933110367893
2023-05-02T03:40:58.334Z,2.5652173913043477
2023-05-02T03:48:22.420Z,3.036789297658863
2023-05-02T03:54:42.243Z,4.404682274247492
2023-05-02T04:01:03.489Z,3.588628762541806
2023-05-02T04:07:23.800Z,4.016722408026756
2023-05-02T04:13:43.877Z,2.963210702341137
2023-05-02T04:20:05.566Z,2.551839464882943
2023-05-02T04:26:28.302Z,4.521739130434782
2023-05-02T04:35:45.028Z,3.3545150501672243
2023-05-02T04:42:07.277Z,3.859531772575251
2023-05-02T04:53:02.070Z,2.719063545150502
2023-05-02T05:03:46.216Z,2.2441471571906355
2023-05-02T05:10:08.559Z,3.528428093645485
2023-05-02T05:16:30.820Z,3.1036789297658864
2023-05-02T05:22:52.385Z,2.668896321070234
2023-05-02T05:29:14.939Z,3.839464882943144
2023-05-02T05:35:36.684Z,3.5618729096989967
2023-05-02T05:42:00.887Z,3.130434782608696
2023-05-02T05:48:24.598Z,2.859531772575251
2023-05-02T05:54:48.455Z,2.6053511705685617
2023-05-02T06:02:32.323Z,2.3779264214046822
2023-05-02T06:08:55.967Z,2.448160535117057
2023-05-02T06:28:27.774Z,2.5585284280936453
2023-05-02T06:34:51.911Z,2.842809364548495
2023-05-02T06:41:17.298Z,2.180602006688963
2023-05-02T06:47:42.237Z,2.0501672240802677
2023-05-02T06:54:05.352Z,1.9565217391304348
2023-05-02T07:00:30.121Z,1.7625418060200668
2023-05-02T07:06:51.515Z,2.668896321070234
2023-05-02T07:13:53.815Z,1.6622073578595318
2023-05-02T07:20:15.287Z,2.4448160535117056
2023-05-02T07:26:38.863Z,3.1103678929765888
2023-05-02T07:33:00.984Z,2.277591973244147
2023-05-02T07:44:06.917Z,2.6555183946488294
2023-05-02T07:50:28.909Z,1.9832775919732442
2023-05-02T07:56:50.778Z,2.5652173913043477
2023-05-02T08:08:09.397Z,2.387959866220736
2023-05-02T08:14:30.899Z,0.9096989966555183
2023-05-02T08:20:52.171Z,2.4347826086956523
2023-05-02T08:32:17.741Z,1.9632107023411371
2023-05-02T08:38:39.185Z,2.0267558528428093
2023-05-02T08:45:01.383Z,2.080267558528428
2023-05-02T09:01:20.831Z,1.5217391304347827
2023-05-02T09:07:41.703Z,1.1438127090301002
2023-05-02T09:14:03.699Z,1.6956521739130435
2023-05-02T09:20:25.744Z,1.5451505016722409
2023-05-02T09:26:46.543Z,1.117056856187291
2023-05-02T09:33:06.794Z,1.842809364548495
2023-05-02T09:39:26.613Z,1.7591973244147157
2023-05-02T09:55:54.854Z,0.802675585284281
2023-05-02T10:02:15.008Z,1.1906354515050168
2023-05-02T10:08:34.491Z,2.280936454849498
2023-05-02T10:14:54.073Z,1.4013377926421404
2023-05-02T10:21:16.381Z,1.020066889632107
2023-05-02T10:27:36.069Z,1.157190635451505
2023-05-02T10:33:56.142Z,0.6220735785953178
2023-05-02T10:40:16.349Z,1.1505016722408026
2023-05-02T11:12:31.259Z,1.0066889632107023
2023-05-02T11:23:13.235Z,0.9364548494983278
2023-05-02T11:29:35.063Z,0.9230769230769231
2023-05-02T11:35:57.362Z,1.411371237458194
2023-05-02T11:42:19.317Z,1.1638795986622072
2023-05-02T11:48:40.818Z,0.9832775919732442
2023-05-02T11:58:25.371Z,1.2474916387959867
2023-05-02T12:04:45.473Z,0.8695652173913043
2023-05-02T12:20:35.498Z,1.3678929765886287
2023-05-02T12:32:39.925Z,0.9364548494983278
2023-05-02T12:44:56.983Z,1.4548494983277591
2023-05-02T12:51:17.777Z,1.3377926421404682
2023-05-02T12:57:37.734Z,1.3678929765886287
2023-05-02T13:03:57.995Z,0.6220735785953178
2023-05-02T13:10:18.520Z,1.2709030100334449
2023-05-02T13:19:26.641Z,4.137123745819398
2023-05-02T13:25:46.852Z,2.0735785953177257
2023-05-02T13:34:26.844Z,4.528428093645485
2023-05-02T13:40:47.009Z,1.6521739130434783
2023-05-02T13:47:06.733Z,1.0434782608695652
2023-05-02T13:55:05.738Z,1.0066889632107023
2023-05-02T14:01:26.072Z,1.7190635451505016
2023-05-02T14:07:46.714Z,1.3411371237458194
2023-05-02T14:14:07.532Z,1.117056856187291
2023-05-02T14:20:29.625Z,0.9531772575250836
2023-05-02T14:26:51.725Z,1.8093645484949832
2023-05-02T14:33:13.544Z,0.9063545150501672
2023-05-02T14:39:55.128Z,0.7023411371237458
2023-05-02T14:46:15.911Z,1.6187290969899666
2023-05-02T14:52:36.027Z,1.3043478260869565
2023-05-02T14:58:57.066Z,1.1772575250836121
2023-05-02T15:05:18.069Z,1.5785953177257526
2023-05-02T15:11:37.927Z,1.5250836120401339
2023-05-02T15:17:58.653Z,0.9364548494983278
2023-05-02T15:24:19.515Z,1.1304347826086956
2023-05-02T15:36:18.988Z,1.0702341137123745
2023-05-02T15:42:39.811Z,1.605351170568562
2023-05-02T15:48:59.719Z,1.608695652173913
2023-05-02T15:55:19.763Z,1.0635451505016722
2023-05-02T16:01:40.910Z,2.234113712374582
2023-05-02T16:14:11.514Z,1.859531772575251
2023-05-02T16:25:59.754Z,0.9933110367892977
2023-05-02T16:32:30.855Z,1.6387959866220736
2023-05-02T16:39:51.082Z,1.8896321070234114
2023-05-02T16:46:13.176Z,1.5819397993311037
2023-05-02T16:52:34.451Z,0.882943143812709
2023-05-02T16:58:55.683Z,0.9230769230769231
2023-05-02T17:06:36.199Z,2.3411371237458196
2023-05-02T17:13:01.089Z,1.4046822742474916
2023-05-02T17:23:23.994Z,1.3411371237458194
2023-05-02T17:29:53.229Z,0.7892976588628763
2023-05-02T17:36:18.743Z,1.193979933110368
2023-05-02T17:42:42.326Z,1.2173913043478262
2023-05-02T17:49:05.829Z,0.8963210702341137
2023-05-02T17:55:51.753Z,0.9832775919732442
2023-05-02T18:02:22.004Z,0.6688963210702341
2023-05-02T18:08:44.428Z,1.0769230769230769
2023-05-02T18:15:07.572Z,0.9096989966555183
2023-05-02T18:25:23.360Z,0.8461538461538461
2023-05-02T18:37:08.629Z,0.9163879598662207
2023-05-02T18:47:19.175Z,0.6688963210702341
2023-05-02T18:56:21.129Z,0.7558528428093646
2023-05-02T19:02:42.412Z,1.1304347826086956
2023-05-02T19:09:04.676Z,1.0301003344481605
2023-05-02T19:15:29.077Z,1.3110367892976589
2023-05-02T19:23:40.685Z,1.1638795986622072
2023-05-02T19:30:02.068Z,0.9632107023411371
2023-05-02T19:36:30.769Z,1.0969899665551839
2023-05-02T19:42:55.747Z,1.294314381270903
2023-05-02T19:53:23.310Z,1.6588628762541806
2023-05-02T19:59:43.640Z,1.2240802675585285
2023-05-02T20:10:27.716Z,1.665551839464883
2023-05-02T20:21:08.723Z,1.3678929765886287
2023-05-02T20:27:38.599Z,1.3076923076923077
2023-05-02T20:34:00.324Z,1.080267558528428
2023-05-02T20:45:31.711Z,0.9899665551839465
2023-05-02T20:51:52.832Z,1.548494983277592
2023-05-02T20:58:14.483Z,1.2842809364548495
2023-05-02T21:04:35.216Z,2.4381270903010033
2023-05-02T21:13:38.606Z,1.508361204013378
2023-05-02T21:20:03.430Z,1.1839464882943145
2023-05-02T21:26:25.005Z,0.9899665551839465
2023-05-02T21:36:37.805Z,0.5551839464882943
2023-05-02T21:42:56.240Z,1.2608695652173914
2023-05-02T21:49:18.046Z,1.1538461538461537
2023-05-02T21:55:42.569Z,0.7224080267558528
2023-05-02T22:02:12.407Z,1.2775919732441472
2023-05-02T22:10:50.866Z,1.2876254180602007
2023-05-02T22:17:14.500Z,1.414715719063545
2023-05-02T22:23:39.270Z,1.8227424749163879
2023-05-02T22:30:01.606Z,1.508361204013378
2023-05-02T22:36:22.827Z,1.7759197324414715
2023-05-02T22:42:43.938Z,1.4849498327759196
2023-05-02T22:49:03.805Z,1.3444816053511706
2023-05-02T22:55:24.985Z,1.645484949832776
2023-05-02T23:01:45.393Z,1.7759197324414715
2023-05-02T23:08:05.020Z,1.4849498327759196
2023-05-02T23:24:29.779Z,1.6120401337792643
2023-05-02T23:30:49.108Z,0.9364548494983278
2023-05-02T23:37:09.478Z,1.7023411371237458
2023-05-02T23:43:29.573Z,0.7090301003344481
2023-05-02T23:55:59.375Z,1.3846153846153846
